sensor_id;sensor_type;location;lat;lon;timestamp;temperature;humidity
21801;DHT22;11062;51.164;16.924;2023-12-20T00:07:52;29.10;42.00
21801;DHT22;11062;51.164;16.924;2023-12-20T00:20:13;29.00;42.50
21801;DHT22;11062;51.164;16.924;2023-12-20T00:22:44;28.90;42.30
21801;DHT22;11062;51.164;16.924;2023-12-20T00:30:42;29.00;42.30
21801;DHT22;11062;51.164;16.924;2023-12-20T00:33:47;29.10;42.50
21801;DHT22;11062;51.164;16.924;2023-12-20T00:36:17;28.90;42.50
21801;DHT22;11062;51.164;16.924;2023-12-20T00:39:21;28.60;42.80
21801;DHT22;11062;51.164;16.924;2023-12-20T00:42:52;28.40;42.80
21801;DHT22;11062;51.164;16.924;2023-12-20T00:45:59;28.60;43.10
21801;DHT22;11062;51.164;16.924;2023-12-20T00:49:26;28.80;43.10
21801;DHT22;11062;51.164;16.924;2023-12-20T00:51:52;28.90;43.10
21801;DHT22;11062;51.164;16.924;2023-12-20T00:54:21;29.00;42.80
21801;DHT22;11062;51.164;16.924;2023-12-20T01:04:19;29.30;42.80
21801;DHT22;11062;51.164;16.924;2023-12-20T01:06:45;29.30;42.80
21801;DHT22;11062;51.164;16.924;2023-12-20T01:09:17;29.20;42.80
21801;DHT22;11062;51.164;16.924;2023-12-20T01:42:29;28.00;44.20
21801;DHT22;11062;51.164;16.924;2023-12-20T01:44:57;27.90;44.30
21801;DHT22;11062;51.164;16.924;2023-12-20T01:47:23;27.90;44.00
21801;DHT22;11062;51.164;16.924;2023-12-20T01:49:52;27.90;44.00
21801;DHT22;11062;51.164;16.924;2023-12-20T01:52:20;27.90;44.10
21801;DHT22;11062;51.164;16.924;2023-12-20T01:54:47;27.80;43.80
21801;DHT22;11062;51.164;16.924;2023-12-20T01:57:13;28.10;44.10
21801;DHT22;11062;51.164;16.924;2023-12-20T02:07:59;28.20;43.50
21801;DHT22;11062;51.164;16.924;2023-12-20T02:51:17;28.00;42.80
21801;DHT22;11062;51.164;16.924;2023-12-20T03:01:44;28.40;43.30
21801;DHT22;11062;51.164;16.924;2023-12-20T04:24:40;26.70;44.00
21801;DHT22;11062;51.164;16.924;2023-12-20T04:31:47;26.80;44.00
21801;DHT22;11062;51.164;16.924;2023-12-20T04:34:43;26.70;43.50
21801;DHT22;11062;51.164;16.924;2023-12-20T04:37:13;26.30;44.40
21801;DHT22;11062;51.164;16.924;2023-12-20T04:40:06;26.40;44.40
21801;DHT22;11062;51.164;16.924;2023-12-20T04:42:49;26.20;44.00
21801;DHT22;11062;51.164;16.924;2023-12-20T04:46:06;26.40;44.10
21801;DHT22;11062;51.164;16.924;2023-12-20T04:48:55;26.40;44.10
21801;DHT22;11062;51.164;16.924;2023-12-20T04:51:41;26.50;44.80
21801;DHT22;11062;51.164;16.924;2023-12-20T04:54:25;26.60;44.00
21801;DHT22;11062;51.164;16.924;2023-12-20T04:56:51;26.60;43.90
21801;DHT22;11062;51.164;16.924;2023-12-20T04:59:17;26.60;44.20
21801;DHT22;11062;51.164;16.924;2023-12-20T05:01:43;26.80;43.90
21801;DHT22;11062;51.164;16.924;2023-12-20T05:04:08;27.10;43.70
21801;DHT22;11062;51.164;16.924;2023-12-20T05:06:37;27.00;43.80
21801;DHT22;11062;51.164;16.924;2023-12-20T05:09:26;27.10;43.30
21801;DHT22;11062;51.164;16.924;2023-12-20T05:12:27;26.90;43.40
21801;DHT22;11062;51.164;16.924;2023-12-20T05:15:50;26.60;43.50
21801;DHT22;11062;51.164;16.924;2023-12-20T05:35:52;27.10;43.70
21801;DHT22;11062;51.164;16.924;2023-12-20T05:39:15;27.00;43.40
21801;DHT22;11062;51.164;16.924;2023-12-20T05:52:42;27.10;43.70
21801;DHT22;11062;51.164;16.924;2023-12-20T05:56:05;26.30;43.80
21801;DHT22;11062;51.164;16.924;2023-12-20T05:59:16;26.80;44.10
21801;DHT22;11062;51.164;16.924;2023-12-20T06:01:47;26.80;43.90
21801;DHT22;11062;51.164;16.924;2023-12-20T06:04:21;26.60;43.60
21801;DHT22;11062;51.164;16.924;2023-12-20T06:06:50;26.80;44.00
21801;DHT22;11062;51.164;16.924;2023-12-20T06:20:23;26.80;44.10
21801;DHT22;11062;51.164;16.924;2023-12-20T06:23:58;26.50;44.20
21801;DHT22;11062;51.164;16.924;2023-12-20T06:27:13;26.10;44.50
21801;DHT22;11062;51.164;16.924;2023-12-20T06:34:21;25.50;45.00
21801;DHT22;11062;51.164;16.924;2023-12-20T06:37:36;25.80;44.90
21801;DHT22;11062;51.164;16.924;2023-12-20T06:40:24;25.80;45.00
21801;DHT22;11062;51.164;16.924;2023-12-20T06:57:10;25.20;44.90
21801;DHT22;11062;51.164;16.924;2023-12-20T07:03:38;25.70;45.30
21801;DHT22;11062;51.164;16.924;2023-12-20T07:06:04;25.50;44.80
21801;DHT22;11062;51.164;16.924;2023-12-20T07:08:30;25.20;44.80
21801;DHT22;11062;51.164;16.924;2023-12-20T07:10:56;25.40;45.20
21801;DHT22;11062;51.164;16.924;2023-12-20T07:13:25;25.70;44.90
21801;DHT22;11062;51.164;16.924;2023-12-20T07:15:53;25.70;44.60
21801;DHT22;11062;51.164;16.924;2023-12-20T07:18:19;25.20;44.70
21801;DHT22;11062;51.164;16.924;2023-12-20T07:20:48;25.00;44.90
21801;DHT22;11062;51.164;16.924;2023-12-20T07:23:14;24.80;45.30
21801;DHT22;11062;51.164;16.924;2023-12-20T07:25:52;25.10;45.80
21801;DHT22;11062;51.164;16.924;2023-12-20T07:35:37;25.80;44.80
21801;DHT22;11062;51.164;16.924;2023-12-20T07:38:11;26.00;44.30
21801;DHT22;11062;51.164;16.924;2023-12-20T07:40:37;25.70;44.10
21801;DHT22;11062;51.164;16.924;2023-12-20T07:43:04;25.00;44.70
21801;DHT22;11062;51.164;16.924;2023-12-20T07:45:30;25.50;45.20
21801;DHT22;11062;51.164;16.924;2023-12-20T07:47:56;25.50;44.70
21801;DHT22;11062;51.164;16.924;2023-12-20T07:50:22;25.30;44.50
21801;DHT22;11062;51.164;16.924;2023-12-20T07:52:48;25.70;44.60
21801;DHT22;11062;51.164;16.924;2023-12-20T07:55:14;26.10;44.60
21801;DHT22;11062;51.164;16.924;2023-12-20T07:57:40;26.40;44.10
21801;DHT22;11062;51.164;16.924;2023-12-20T08:00:06;26.30;43.70
21801;DHT22;11062;51.164;16.924;2023-12-20T08:02:32;26.30;44.10
21801;DHT22;11062;51.164;16.924;2023-12-20T08:11:49;26.20;44.00
21801;DHT22;11062;51.164;16.924;2023-12-20T08:14:15;26.60;43.90
21801;DHT22;11062;51.164;16.924;2023-12-20T08:16:41;26.40;43.40
21801;DHT22;11062;51.164;16.924;2023-12-20T08:19:07;26.40;43.80
21801;DHT22;11062;51.164;16.924;2023-12-20T08:21:40;26.00;43.50
21801;DHT22;11062;51.164;16.924;2023-12-20T08:24:09;25.60;44.30
21801;DHT22;11062;51.164;16.924;2023-12-20T08:26:34;25.90;44.20
21801;DHT22;11062;51.164;16.924;2023-12-20T08:29:00;26.30;44.30
21801;DHT22;11062;51.164;16.924;2023-12-20T08:31:32;26.50;43.80
21801;DHT22;11062;51.164;16.924;2023-12-20T08:33:58;26.50;43.70
21801;DHT22;11062;51.164;16.924;2023-12-20T08:36:24;26.80;43.60
21801;DHT22;11062;51.164;16.924;2023-12-20T08:38:50;26.80;43.10
21801;DHT22;11062;51.164;16.924;2023-12-20T08:41:17;26.70;43.20
21801;DHT22;11062;51.164;16.924;2023-12-20T08:43:43;26.70;43.30
21801;DHT22;11062;51.164;16.924;2023-12-20T08:46:09;26.70;43.40
21801;DHT22;11062;51.164;16.924;2023-12-20T08:48:36;26.60;43.50
21801;DHT22;11062;51.164;16.924;2023-12-20T08:51:25;26.60;43.30
21801;DHT22;11062;51.164;16.924;2023-12-20T08:53:54;27.10;43.50
21801;DHT22;11062;51.164;16.924;2023-12-20T08:56:28;27.30;43.00
21801;DHT22;11062;51.164;16.924;2023-12-20T08:59:04;27.30;42.60
21801;DHT22;11062;51.164;16.924;2023-12-20T09:01:33;27.60;42.80
21801;DHT22;11062;51.164;16.924;2023-12-20T09:04:24;27.70;42.70
21801;DHT22;11062;51.164;16.924;2023-12-20T09:06:59;27.70;42.40
21801;DHT22;11062;51.164;16.924;2023-12-20T09:09:29;27.70;42.20
21801;DHT22;11062;51.164;16.924;2023-12-20T09:12:00;27.60;42.00
21801;DHT22;11062;51.164;16.924;2023-12-20T09:14:30;27.60;42.50
21801;DHT22;11062;51.164;16.924;2023-12-20T09:17:02;27.40;42.50
21801;DHT22;11062;51.164;16.924;2023-12-20T09:19:32;27.40;42.30
21801;DHT22;11062;51.164;16.924;2023-12-20T09:21:59;27.20;42.30
21801;DHT22;11062;51.164;16.924;2023-12-20T09:24:28;27.00;42.60
21801;DHT22;11062;51.164;16.924;2023-12-20T09:27:05;26.90;42.90
21801;DHT22;11062;51.164;16.924;2023-12-20T09:29:32;26.80;43.00
21801;DHT22;11062;51.164;16.924;2023-12-20T09:31:58;26.40;43.20
21801;DHT22;11062;51.164;16.924;2023-12-20T09:34:24;26.30;43.70
21801;DHT22;11062;51.164;16.924;2023-12-20T09:36:52;25.80;43.70
21801;DHT22;11062;51.164;16.924;2023-12-20T09:39:44;26.00;44.20
21801;DHT22;11062;51.164;16.924;2023-12-20T09:42:39;25.70;43.90
21801;DHT22;11062;51.164;16.924;2023-12-20T09:45:15;25.90;44.30
21801;DHT22;11062;51.164;16.924;2023-12-20T09:47:44;26.00;44.10
21801;DHT22;11062;51.164;16.924;2023-12-20T09:50:11;26.20;44.30
21801;DHT22;11062;51.164;16.924;2023-12-20T09:52:51;26.50;44.10
21801;DHT22;11062;51.164;16.924;2023-12-20T09:55:19;26.60;43.80
21801;DHT22;11062;51.164;16.924;2023-12-20T09:57:49;27.00;43.20
21801;DHT22;11062;51.164;16.924;2023-12-20T10:00:15;26.70;43.00
21801;DHT22;11062;51.164;16.924;2023-12-20T10:02:50;26.60;43.30
21801;DHT22;11062;51.164;16.924;2023-12-20T10:05:39;26.60;43.10
21801;DHT22;11062;51.164;16.924;2023-12-20T10:09:10;26.50;43.20
21801;DHT22;11062;51.164;16.924;2023-12-20T10:11:58;26.30;43.30
21801;DHT22;11062;51.164;16.924;2023-12-20T10:14:43;25.70;43.90
21801;DHT22;11062;51.164;16.924;2023-12-20T10:17:13;25.50;43.40
21801;DHT22;11062;51.164;16.924;2023-12-20T10:19:38;25.40;44.20
21801;DHT22;11062;51.164;16.924;2023-12-20T10:22:05;25.80;43.50
21801;DHT22;11062;51.164;16.924;2023-12-20T10:24:33;25.70;44.30
21801;DHT22;11062;51.164;16.924;2023-12-20T10:27:09;26.10;43.60
21801;DHT22;11062;51.164;16.924;2023-12-20T10:29:38;26.20;43.40
21801;DHT22;11062;51.164;16.924;2023-12-20T10:32:30;25.90;43.90
21801;DHT22;11062;51.164;16.924;2023-12-20T10:35:06;25.90;43.70
21801;DHT22;11062;51.164;16.924;2023-12-20T10:37:42;25.80;42.50
21801;DHT22;11062;51.164;16.924;2023-12-20T10:40:12;25.70;43.30
21801;DHT22;11062;51.164;16.924;2023-12-20T10:43:03;25.80;43.30
21801;DHT22;11062;51.164;16.924;2023-12-20T10:45:42;26.30;43.00
21801;DHT22;11062;51.164;16.924;2023-12-20T10:48:11;26.10;42.20
21801;DHT22;11062;51.164;16.924;2023-12-20T10:51:04;26.30;41.90
21801;DHT22;11062;51.164;16.924;2023-12-20T10:54:40;26.30;42.10
21801;DHT22;11062;51.164;16.924;2023-12-20T11:14:18;26.70;41.50
21801;DHT22;11062;51.164;16.924;2023-12-20T11:20:42;26.10;41.50
21801;DHT22;11062;51.164;16.924;2023-12-20T11:24:04;26.10;42.40
21801;DHT22;11062;51.164;16.924;2023-12-20T11:34:15;26.20;41.30
21801;DHT22;11062;51.164;16.924;2023-12-20T11:37:41;26.30;41.40
21801;DHT22;11062;51.164;16.924;2023-12-20T11:41:26;26.50;41.50
21801;DHT22;11062;51.164;16.924;2023-12-20T11:44:37;26.10;40.70
21801;DHT22;11062;51.164;16.924;2023-12-20T11:48:35;26.30;41.30
21801;DHT22;11062;51.164;16.924;2023-12-20T11:55:31;26.90;41.50
21801;DHT22;11062;51.164;16.924;2023-12-20T12:02:03;26.70;40.30
21801;DHT22;11062;51.164;16.924;2023-12-20T12:04:32;26.40;40.60
21801;DHT22;11062;51.164;16.924;2023-12-20T12:07:00;26.20;40.70
21801;DHT22;11062;51.164;16.924;2023-12-20T12:09:26;26.40;40.90
21801;DHT22;11062;51.164;16.924;2023-12-20T12:11:55;26.40;40.80
21801;DHT22;11062;51.164;16.924;2023-12-20T12:14:24;26.80;41.10
21801;DHT22;11062;51.164;16.924;2023-12-20T12:16:53;26.90;40.30
21801;DHT22;11062;51.164;16.924;2023-12-20T12:19:26;26.40;40.90
21801;DHT22;11062;51.164;16.924;2023-12-20T12:22:07;26.00;40.80
21801;DHT22;11062;51.164;16.924;2023-12-20T12:24:40;26.60;40.80
21801;DHT22;11062;51.164;16.924;2023-12-20T12:27:06;26.90;40.50
21801;DHT22;11062;51.164;16.924;2023-12-20T12:29:39;26.90;40.20
21801;DHT22;11062;51.164;16.924;2023-12-20T12:32:08;26.90;40.00
21801;DHT22;11062;51.164;16.924;2023-12-20T12:34:37;26.70;39.80
21801;DHT22;11062;51.164;16.924;2023-12-20T12:37:04;26.80;39.80
21801;DHT22;11062;51.164;16.924;2023-12-20T12:39:30;26.40;39.90
21801;DHT22;11062;51.164;16.924;2023-12-20T12:41:58;26.50;40.30
21801;DHT22;11062;51.164;16.924;2023-12-20T12:44:26;26.00;40.50
21801;DHT22;11062;51.164;16.924;2023-12-20T12:46:52;26.00;40.50
21801;DHT22;11062;51.164;16.924;2023-12-20T12:49:22;25.50;40.60
21801;DHT22;11062;51.164;16.924;2023-12-20T12:51:51;25.70;41.10
21801;DHT22;11062;51.164;16.924;2023-12-20T12:54:17;25.80;41.40
21801;DHT22;11062;51.164;16.924;2023-12-20T12:56:46;26.00;41.40
21801;DHT22;11062;51.164;16.924;2023-12-20T12:59:13;26.30;41.10
21801;DHT22;11062;51.164;16.924;2023-12-20T13:01:39;26.20;40.50
21801;DHT22;11062;51.164;16.924;2023-12-20T13:04:05;26.50;40.70
21801;DHT22;11062;51.164;16.924;2023-12-20T13:06:38;26.70;40.70
21801;DHT22;11062;51.164;16.924;2023-12-20T13:09:07;26.90;40.60
21801;DHT22;11062;51.164;16.924;2023-12-20T13:11:35;27.20;40.10
21801;DHT22;11062;51.164;16.924;2023-12-20T13:14:01;26.70;39.60
21801;DHT22;11062;51.164;16.924;2023-12-20T13:16:27;26.60;39.90
21801;DHT22;11062;51.164;16.924;2023-12-20T13:18:55;26.70;40.20
21801;DHT22;11062;51.164;16.924;2023-12-20T13:21:25;26.30;39.70
21801;DHT22;11062;51.164;16.924;2023-12-20T13:23:51;26.40;40.00
21801;DHT22;11062;51.164;16.924;2023-12-20T13:26:20;26.20;39.90
21801;DHT22;11062;51.164;16.924;2023-12-20T13:28:49;26.00;39.90
21801;DHT22;11062;51.164;16.924;2023-12-20T13:31:15;26.00;39.80
21801;DHT22;11062;51.164;16.924;2023-12-20T13:33:44;26.20;40.00
21801;DHT22;11062;51.164;16.924;2023-12-20T13:36:17;26.40;39.60
21801;DHT22;11062;51.164;16.924;2023-12-20T13:38:49;26.20;39.90
21801;DHT22;11062;51.164;16.924;2023-12-20T13:41:15;26.10;39.80
21801;DHT22;11062;51.164;16.924;2023-12-20T13:43:41;26.10;39.80
21801;DHT22;11062;51.164;16.924;2023-12-20T13:46:14;25.60;40.00
21801;DHT22;11062;51.164;16.924;2023-12-20T13:48:40;26.00;40.20
21801;DHT22;11062;51.164;16.924;2023-12-20T13:51:08;25.90;40.00
21801;DHT22;11062;51.164;16.924;2023-12-20T13:53:34;25.90;39.80
21801;DHT22;11062;51.164;16.924;2023-12-20T13:56:04;26.10;39.80
21801;DHT22;11062;51.164;16.924;2023-12-20T13:58:30;26.00;39.90
21801;DHT22;11062;51.164;16.924;2023-12-20T14:00:59;25.80;39.60
21801;DHT22;11062;51.164;16.924;2023-12-20T14:03:25;25.80;39.80
21801;DHT22;11062;51.164;16.924;2023-12-20T14:05:54;26.10;39.90
21801;DHT22;11062;51.164;16.924;2023-12-20T14:08:23;25.80;39.80
21801;DHT22;11062;51.164;16.924;2023-12-20T14:10:49;25.70;40.20
21801;DHT22;11062;51.164;16.924;2023-12-20T14:13:18;25.50;40.00
21801;DHT22;11062;51.164;16.924;2023-12-20T14:15:44;25.50;40.00
21801;DHT22;11062;51.164;16.924;2023-12-20T14:18:14;25.30;39.60
21801;DHT22;11062;51.164;16.924;2023-12-20T14:20:41;25.00;40.00
21801;DHT22;11062;51.164;16.924;2023-12-20T14:23:11;24.50;40.40
21801;DHT22;11062;51.164;16.924;2023-12-20T14:25:37;24.90;40.90
21801;DHT22;11062;51.164;16.924;2023-12-20T14:28:04;25.10;40.70
21801;DHT22;11062;51.164;16.924;2023-12-20T14:30:30;25.10;40.30
21801;DHT22;11062;51.164;16.924;2023-12-20T14:32:59;25.20;40.20
21801;DHT22;11062;51.164;16.924;2023-12-20T14:35:25;25.40;40.30
21801;DHT22;11062;51.164;16.924;2023-12-20T14:37:53;25.20;40.00
21801;DHT22;11062;51.164;16.924;2023-12-20T14:40:19;25.70;40.10
21801;DHT22;11062;51.164;16.924;2023-12-20T14:42:48;25.70;39.70
21801;DHT22;11062;51.164;16.924;2023-12-20T14:45:20;26.10;39.70
21801;DHT22;11062;51.164;16.924;2023-12-20T14:47:49;26.10;39.30
21801;DHT22;11062;51.164;16.924;2023-12-20T14:50:15;26.30;39.20
21801;DHT22;11062;51.164;16.924;2023-12-20T14:52:44;26.50;39.00
21801;DHT22;11062;51.164;16.924;2023-12-20T14:55:17;26.50;38.90
21801;DHT22;11062;51.164;16.924;2023-12-20T14:57:47;26.50;38.90
21801;DHT22;11062;51.164;16.924;2023-12-20T15:00:18;26.30;38.50
21801;DHT22;11062;51.164;16.924;2023-12-20T15:02:45;25.70;38.90
21801;DHT22;11062;51.164;16.924;2023-12-20T15:05:11;26.10;39.60
21801;DHT22;11062;51.164;16.924;2023-12-20T15:07:37;25.60;39.00
21801;DHT22;11062;51.164;16.924;2023-12-20T15:10:03;25.50;39.00
21801;DHT22;11062;51.164;16.924;2023-12-20T15:12:29;25.10;39.60
21801;DHT22;11062;51.164;16.924;2023-12-20T15:14:55;25.70;39.80
21801;DHT22;11062;51.164;16.924;2023-12-20T15:17:22;25.80;39.30
21801;DHT22;11062;51.164;16.924;2023-12-20T15:19:48;25.70;39.00
21801;DHT22;11062;51.164;16.924;2023-12-20T15:22:14;25.60;38.60
21801;DHT22;11062;51.164;16.924;2023-12-20T15:24:43;25.90;39.10
21801;DHT22;11062;51.164;16.924;2023-12-20T15:27:11;26.20;38.80
21801;DHT22;11062;51.164;16.924;2023-12-20T15:29:37;26.70;38.50
21801;DHT22;11062;51.164;16.924;2023-12-20T19:54:40;25.20;41.00
21801;DHT22;11062;51.164;16.924;2023-12-20T21:13:11;26.50;41.50
21801;DHT22;11062;51.164;16.924;2023-12-20T21:15:37;26.50;41.60
21801;DHT22;11062;51.164;16.924;2023-12-20T21:18:03;26.90;41.70
21801;DHT22;11062;51.164;16.924;2023-12-20T21:20:30;27.00;41.30
21801;DHT22;11062;51.164;16.924;2023-12-20T21:22:59;27.00;41.10
21801;DHT22;11062;51.164;16.924;2023-12-20T21:25:32;27.30;40.90
21801;DHT22;11062;51.164;16.924;2023-12-20T21:27:58;27.40;40.60
21801;DHT22;11062;51.164;16.924;2023-12-20T21:30:27;27.60;40.60
21801;DHT22;11062;51.164;16.924;2023-12-20T21:33:02;27.60;40.20
21801;DHT22;11062;51.164;16.924;2023-12-20T21:35:28;27.30;40.00
21801;DHT22;11062;51.164;16.924;2023-12-20T21:38:03;27.40;40.50
21801;DHT22;11062;51.164;16.924;2023-12-20T21:40:30;27.50;40.50
21801;DHT22;11062;51.164;16.924;2023-12-20T21:43:11;27.00;40.20
21801;DHT22;11062;51.164;16.924;2023-12-20T21:45:41;27.10;40.50
21801;DHT22;11062;51.164;16.924;2023-12-20T21:48:10;27.00;40.30
21801;DHT22;11062;51.164;16.924;2023-12-20T21:53:41;26.70;40.10
21801;DHT22;11062;51.164;16.924;2023-12-20T21:56:07;26.90;40.00
21801;DHT22;11062;51.164;16.924;2023-12-20T23:57:56;28.30;40.10
